sensor_id;sensor_type;location;lat;lon;timestamp;P1;durP1;ratioP1;P2;durP2;ratioP2
82505;SDS011;72144;51.444;10.560;2023-12-04T00:00:59;20.70;;;12.38;;
82505;SDS011;72144;51.444;10.560;2023-12-04T00:03:24;21.08;;;11.20;;
82505;SDS011;72144;51.444;10.560;2023-12-04T00:05:50;23.45;;;12.93;;
82505;SDS011;72144;51.444;10.560;2023-12-04T00:08:15;24.15;;;11.85;;
82505;SDS011;72144;51.444;10.560;2023-12-04T00:10:40;19.92;;;11.88;;
82505;SDS011;72144;51.444;10.560;2023-12-04T00:13:06;21.13;;;13.10;;
82505;SDS011;72144;51.444;10.560;2023-12-04T00:15:31;21.80;;;11.52;;
82505;SDS011;72144;51.444;10.560;2023-12-04T00:17:56;18.25;;;11.10;;
82505;SDS011;72144;51.444;10.560;2023-12-04T00:20:22;22.80;;;12.90;;
82505;SDS011;72144;51.444;10.560;2023-12-04T00:22:47;18.70;;;10.35;;
82505;SDS011;72144;51.444;10.560;2023-12-04T00:25:13;21.40;;;11.20;;
82505;SDS011;72144;51.444;10.560;2023-12-04T00:27:38;20.27;;;11.13;;
82505;SDS011;72144;51.444;10.560;2023-12-04T00:30:04;18.38;;;10.48;;
82505;SDS011;72144;51.444;10.560;2023-12-04T00:32:31;19.92;;;10.68;;
82505;SDS011;72144;51.444;10.560;2023-12-04T00:34:56;18.20;;;9.88;;
82505;SDS011;72144;51.444;10.560;2023-12-04T00:37:22;18.50;;;11.23;;
82505;SDS011;72144;51.444;10.560;2023-12-04T00:39:47;19.23;;;11.13;;
82505;SDS011;72144;51.444;10.560;2023-12-04T00:42:13;21.15;;;11.57;;
82505;SDS011;72144;51.444;10.560;2023-12-04T00:44:38;22.70;;;11.88;;
82505;SDS011;72144;51.444;10.560;2023-12-04T00:47:03;20.23;;;10.18;;
82505;SDS011;72144;51.444;10.560;2023-12-04T00:49:29;20.52;;;11.23;;
82505;SDS011;72144;51.444;10.560;2023-12-04T00:51:54;24.38;;;12.82;;
82505;SDS011;72144;51.444;10.560;2023-12-04T00:54:20;21.30;;;11.95;;
82505;SDS011;72144;51.444;10.560;2023-12-04T00:56:45;18.92;;;11.43;;
82505;SDS011;72144;51.444;10.560;2023-12-04T00:59:10;19.45;;;11.10;;
82505;SDS011;72144;51.444;10.560;2023-12-04T01:01:36;16.98;;;10.50;;
82505;SDS011;72144;51.444;10.560;2023-12-04T01:04:02;25.38;;;12.02;;
82505;SDS011;72144;51.444;10.560;2023-12-04T01:06:28;19.67;;;10.65;;
82505;SDS011;72144;51.444;10.560;2023-12-04T01:08:54;20.88;;;10.70;;
82505;SDS011;72144;51.444;10.560;2023-12-04T01:11:20;21.90;;;11.48;;
82505;SDS011;72144;51.444;10.560;2023-12-04T01:13:45;18.60;;;10.63;;
82505;SDS011;72144;51.444;10.560;2023-12-04T01:16:11;22.92;;;11.23;;
82505;SDS011;72144;51.444;10.560;2023-12-04T01:18:37;23.67;;;11.60;;
82505;SDS011;72144;51.444;10.560;2023-12-04T01:21:02;20.35;;;10.93;;
82505;SDS011;72144;51.444;10.560;2023-12-04T01:23:28;21.45;;;12.18;;
82505;SDS011;72144;51.444;10.560;2023-12-04T01:25:53;18.98;;;9.95;;
82505;SDS011;72144;51.444;10.560;2023-12-04T01:28:19;19.67;;;10.65;;
82505;SDS011;72144;51.444;10.560;2023-12-04T01:30:44;19.02;;;11.77;;
82505;SDS011;72144;51.444;10.560;2023-12-04T01:33:09;22.90;;;11.75;;
82505;SDS011;72144;51.444;10.560;2023-12-04T01:35:35;24.17;;;11.85;;
82505;SDS011;72144;51.444;10.560;2023-12-04T01:38:00;21.15;;;11.68;;
82505;SDS011;72144;51.444;10.560;2023-12-04T01:40:26;18.27;;;10.70;;
82505;SDS011;72144;51.444;10.560;2023-12-04T01:42:52;20.60;;;11.50;;
82505;SDS011;72144;51.444;10.560;2023-12-04T01:45:17;18.80;;;11.70;;
82505;SDS011;72144;51.444;10.560;2023-12-04T01:47:42;22.55;;;12.38;;
82505;SDS011;72144;51.444;10.560;2023-12-04T01:50:08;19.77;;;11.25;;
82505;SDS011;72144;51.444;10.560;2023-12-04T01:52:35;17.63;;;11.43;;
82505;SDS011;72144;51.444;10.560;2023-12-04T01:55:02;23.73;;;12.15;;
82505;SDS011;72144;51.444;10.560;2023-12-04T01:57:28;24.25;;;12.88;;
82505;SDS011;72144;51.444;10.560;2023-12-04T01:59:53;20.20;;;11.80;;
82505;SDS011;72144;51.444;10.560;2023-12-04T02:02:19;19.25;;;11.15;;
82505;SDS011;72144;51.444;10.560;2023-12-04T02:04:45;22.17;;;11.52;;
82505;SDS011;72144;51.444;10.560;2023-12-04T02:07:10;20.80;;;11.00;;
82505;SDS011;72144;51.444;10.560;2023-12-04T02:09:36;25.63;;;11.98;;
82505;SDS011;72144;51.444;10.560;2023-12-04T02:12:02;21.63;;;11.30;;
82505;SDS011;72144;51.444;10.560;2023-12-04T02:14:28;18.42;;;9.63;;
82505;SDS011;72144;51.444;10.560;2023-12-04T02:16:54;18.45;;;10.55;;
82505;SDS011;72144;51.444;10.560;2023-12-04T02:19:21;17.63;;;9.95;;
82505;SDS011;72144;51.444;10.560;2023-12-04T02:21:46;14.45;;;9.00;;
82505;SDS011;72144;51.444;10.560;2023-12-04T02:24:12;16.30;;;9.43;;
82505;SDS011;72144;51.444;10.560;2023-12-04T02:26:56;18.42;;;10.13;;
82505;SDS011;72144;51.444;10.560;2023-12-04T02:29:32;19.30;;;9.73;;
82505;SDS011;72144;51.444;10.560;2023-12-04T02:32:08;15.90;;;8.93;;
82505;SDS011;72144;51.444;10.560;2023-12-04T02:34:37;16.92;;;9.77;;
82505;SDS011;72144;51.444;10.560;2023-12-04T02:37:05;19.45;;;10.15;;
82505;SDS011;72144;51.444;10.560;2023-12-04T02:39:32;19.42;;;10.65;;
82505;SDS011;72144;51.444;10.560;2023-12-04T02:41:57;15.93;;;8.85;;
82505;SDS011;72144;51.444;10.560;2023-12-04T02:44:23;16.77;;;9.05;;
82505;SDS011;72144;51.444;10.560;2023-12-04T02:46:48;19.83;;;9.80;;
82505;SDS011;72144;51.444;10.560;2023-12-04T02:49:13;31.73;;;14.20;;
82505;SDS011;72144;51.444;10.560;2023-12-04T02:51:41;20.48;;;10.73;;
82505;SDS011;72144;51.444;10.560;2023-12-04T02:54:07;28.63;;;12.85;;
82505;SDS011;72144;51.444;10.560;2023-12-04T02:56:32;19.55;;;9.32;;
82505;SDS011;72144;51.444;10.560;2023-12-04T02:58:58;25.60;;;11.07;;
82505;SDS011;72144;51.444;10.560;2023-12-04T03:01:23;26.45;;;12.15;;
82505;SDS011;72144;51.444;10.560;2023-12-04T03:03:48;19.30;;;10.75;;
82505;SDS011;72144;51.444;10.560;2023-12-04T03:06:14;19.13;;;10.68;;
82505;SDS011;72144;51.444;10.560;2023-12-04T03:08:41;22.10;;;13.10;;
82505;SDS011;72144;51.444;10.560;2023-12-04T03:11:07;19.85;;;11.20;;
82505;SDS011;72144;51.444;10.560;2023-12-04T03:13:33;17.58;;;10.40;;
82505;SDS011;72144;51.444;10.560;2023-12-04T03:15:59;16.73;;;10.23;;
82505;SDS011;72144;51.444;10.560;2023-12-04T03:18:24;19.20;;;10.70;;
82505;SDS011;72144;51.444;10.560;2023-12-04T03:20:50;17.60;;;9.88;;
82505;SDS011;72144;51.444;10.560;2023-12-04T03:23:16;19.35;;;10.20;;
82505;SDS011;72144;51.444;10.560;2023-12-04T03:25:42;18.42;;;10.15;;
82505;SDS011;72144;51.444;10.560;2023-12-04T03:28:07;16.98;;;10.43;;
82505;SDS011;72144;51.444;10.560;2023-12-04T03:30:32;17.85;;;11.38;;
82505;SDS011;72144;51.444;10.560;2023-12-04T03:32:58;20.15;;;10.98;;
82505;SDS011;72144;51.444;10.560;2023-12-04T03:35:23;18.95;;;10.38;;
82505;SDS011;72144;51.444;10.560;2023-12-04T03:37:48;20.70;;;11.30;;
82505;SDS011;72144;51.444;10.560;2023-12-04T03:40:17;18.70;;;11.13;;
82505;SDS011;72144;51.444;10.560;2023-12-04T03:42:42;20.38;;;11.75;;
82505;SDS011;72144;51.444;10.560;2023-12-04T03:45:08;24.83;;;12.93;;
82505;SDS011;72144;51.444;10.560;2023-12-04T03:47:34;24.65;;;12.07;;
82505;SDS011;72144;51.444;10.560;2023-12-04T03:49:59;20.27;;;10.70;;
82505;SDS011;72144;51.444;10.560;2023-12-04T03:52:24;16.92;;;10.85;;
82505;SDS011;72144;51.444;10.560;2023-12-04T03:54:50;18.90;;;10.93;;
82505;SDS011;72144;51.444;10.560;2023-12-04T03:57:15;27.65;;;13.73;;
82505;SDS011;72144;51.444;10.560;2023-12-04T03:59:41;18.95;;;10.25;;
82505;SDS011;72144;51.444;10.560;2023-12-04T04:02:06;18.85;;;10.70;;
82505;SDS011;72144;51.444;10.560;2023-12-04T04:04:31;18.15;;;10.45;;
82505;SDS011;72144;51.444;10.560;2023-12-04T04:06:57;20.00;;;10.27;;
82505;SDS011;72144;51.444;10.560;2023-12-04T04:09:22;23.38;;;12.60;;
82505;SDS011;72144;51.444;10.560;2023-12-04T04:11:48;22.52;;;11.63;;
82505;SDS011;72144;51.444;10.560;2023-12-04T04:14:13;22.17;;;11.57;;
82505;SDS011;72144;51.444;10.560;2023-12-04T04:16:39;19.83;;;11.95;;
82505;SDS011;72144;51.444;10.560;2023-12-04T04:19:05;24.45;;;10.90;;
82505;SDS011;72144;51.444;10.560;2023-12-04T04:21:31;17.80;;;9.48;;
82505;SDS011;72144;51.444;10.560;2023-12-04T04:23:56;19.10;;;9.00;;
82505;SDS011;72144;51.444;10.560;2023-12-04T04:26:21;18.35;;;10.73;;
82505;SDS011;72144;51.444;10.560;2023-12-04T04:28:47;18.88;;;10.52;;
82505;SDS011;72144;51.444;10.560;2023-12-04T04:31:12;22.23;;;11.18;;
82505;SDS011;72144;51.444;10.560;2023-12-04T04:33:37;22.23;;;12.02;;
82505;SDS011;72144;51.444;10.560;2023-12-04T04:36:03;21.83;;;12.00;;
82505;SDS011;72144;51.444;10.560;2023-12-04T04:38:29;17.35;;;10.13;;
82505;SDS011;72144;51.444;10.560;2023-12-04T04:40:54;21.13;;;10.18;;
82505;SDS011;72144;51.444;10.560;2023-12-04T04:43:20;17.90;;;9.93;;
82505;SDS011;72144;51.444;10.560;2023-12-04T04:45:45;16.13;;;9.18;;
82505;SDS011;72144;51.444;10.560;2023-12-04T04:48:11;16.73;;;9.55;;
82505;SDS011;72144;51.444;10.560;2023-12-04T04:50:36;15.85;;;9.15;;
82505;SDS011;72144;51.444;10.560;2023-12-04T04:53:01;19.20;;;9.63;;
82505;SDS011;72144;51.444;10.560;2023-12-04T04:55:27;16.92;;;9.00;;
82505;SDS011;72144;51.444;10.560;2023-12-04T04:57:52;17.25;;;8.88;;
82505;SDS011;72144;51.444;10.560;2023-12-04T05:00:18;18.02;;;9.40;;
82505;SDS011;72144;51.444;10.560;2023-12-04T05:02:43;18.95;;;9.82;;
82505;SDS011;72144;51.444;10.560;2023-12-04T05:05:09;17.02;;;9.98;;
82505;SDS011;72144;51.444;10.560;2023-12-04T05:07:34;15.55;;;9.07;;
82505;SDS011;72144;51.444;10.560;2023-12-04T05:09:59;19.10;;;9.20;;
82505;SDS011;72144;51.444;10.560;2023-12-04T05:12:25;17.25;;;9.77;;
82505;SDS011;72144;51.444;10.560;2023-12-04T05:14:50;18.10;;;10.07;;
82505;SDS011;72144;51.444;10.560;2023-12-04T05:17:16;15.63;;;9.32;;
82505;SDS011;72144;51.444;10.560;2023-12-04T05:19:41;15.73;;;9.35;;
82505;SDS011;72144;51.444;10.560;2023-12-04T05:22:07;16.15;;;8.52;;
82505;SDS011;72144;51.444;10.560;2023-12-04T05:24:33;18.33;;;9.15;;
82505;SDS011;72144;51.444;10.560;2023-12-04T05:26:58;17.92;;;9.10;;
82505;SDS011;72144;51.444;10.560;2023-12-04T05:29:23;16.80;;;9.60;;
82505;SDS011;72144;51.444;10.560;2023-12-04T05:31:49;21.15;;;11.13;;
82505;SDS011;72144;51.444;10.560;2023-12-04T05:34:14;17.83;;;9.32;;
82505;SDS011;72144;51.444;10.560;2023-12-04T05:36:39;19.58;;;10.07;;
82505;SDS011;72144;51.444;10.560;2023-12-04T05:39:05;19.80;;;11.32;;
82505;SDS011;72144;51.444;10.560;2023-12-04T05:41:30;19.67;;;10.32;;
82505;SDS011;72144;51.444;10.560;2023-12-04T05:43:56;17.88;;;10.48;;
82505;SDS011;72144;51.444;10.560;2023-12-04T05:46:21;22.20;;;11.13;;
82505;SDS011;72144;51.444;10.560;2023-12-04T05:48:47;25.67;;;11.55;;
82505;SDS011;72144;51.444;10.560;2023-12-04T05:51:13;20.92;;;9.80;;
82505;SDS011;72144;51.444;10.560;2023-12-04T05:53:40;19.65;;;9.85;;
82505;SDS011;72144;51.444;10.560;2023-12-04T05:56:05;18.23;;;9.30;;
82505;SDS011;72144;51.444;10.560;2023-12-04T05:58:32;18.33;;;10.63;;
82505;SDS011;72144;51.444;10.560;2023-12-04T06:00:57;18.08;;;10.40;;
82505;SDS011;72144;51.444;10.560;2023-12-04T06:03:23;20.70;;;11.30;;
82505;SDS011;72144;51.444;10.560;2023-12-04T06:05:48;17.85;;;10.35;;
82505;SDS011;72144;51.444;10.560;2023-12-04T06:08:13;17.83;;;9.85;;
82505;SDS011;72144;51.444;10.560;2023-12-04T06:10:39;18.65;;;11.30;;
82505;SDS011;72144;51.444;10.560;2023-12-04T06:13:05;20.17;;;10.60;;
82505;SDS011;72144;51.444;10.560;2023-12-04T06:15:30;18.17;;;9.80;;
82505;SDS011;72144;51.444;10.560;2023-12-04T06:17:55;18.52;;;10.00;;
82505;SDS011;72144;51.444;10.560;2023-12-04T06:20:21;18.42;;;11.07;;
82505;SDS011;72144;51.444;10.560;2023-12-04T06:22:46;22.75;;;11.68;;
82505;SDS011;72144;51.444;10.560;2023-12-04T06:25:12;19.75;;;11.15;;
82505;SDS011;72144;51.444;10.560;2023-12-04T06:27:38;20.38;;;10.90;;
82505;SDS011;72144;51.444;10.560;2023-12-04T06:30:04;21.83;;;11.35;;
82505;SDS011;72144;51.444;10.560;2023-12-04T06:32:31;21.98;;;10.48;;
82505;SDS011;72144;51.444;10.560;2023-12-04T06:34:57;19.42;;;10.82;;
82505;SDS011;72144;51.444;10.560;2023-12-04T06:37:22;17.88;;;9.48;;
82505;SDS011;72144;51.444;10.560;2023-12-04T06:39:48;16.42;;;9.60;;
82505;SDS011;72144;51.444;10.560;2023-12-04T06:42:15;17.23;;;9.32;;
82505;SDS011;72144;51.444;10.560;2023-12-04T06:44:40;22.48;;;12.30;;
82505;SDS011;72144;51.444;10.560;2023-12-04T06:47:07;26.55;;;14.52;;
82505;SDS011;72144;51.444;10.560;2023-12-04T06:49:33;25.35;;;13.77;;
82505;SDS011;72144;51.444;10.560;2023-12-04T06:51:59;20.73;;;11.43;;
82505;SDS011;72144;51.444;10.560;2023-12-04T06:54:25;20.73;;;11.27;;
82505;SDS011;72144;51.444;10.560;2023-12-04T06:56:51;25.17;;;11.82;;
82505;SDS011;72144;51.444;10.560;2023-12-04T06:59:17;19.67;;;11.48;;
82505;SDS011;72144;51.444;10.560;2023-12-04T07:01:43;17.85;;;11.20;;
82505;SDS011;72144;51.444;10.560;2023-12-04T07:04:08;17.33;;;9.52;;
82505;SDS011;72144;51.444;10.560;2023-12-04T07:06:37;17.80;;;9.60;;
82505;SDS011;72144;51.444;10.560;2023-12-04T07:09:03;18.52;;;10.50;;
82505;SDS011;72144;51.444;10.560;2023-12-04T07:11:29;18.95;;;10.98;;
82505;SDS011;72144;51.444;10.560;2023-12-04T07:13:55;24.52;;;11.98;;
82505;SDS011;72144;51.444;10.560;2023-12-04T07:16:20;22.48;;;11.15;;
82505;SDS011;72144;51.444;10.560;2023-12-04T07:18:45;26.25;;;13.35;;
82505;SDS011;72144;51.444;10.560;2023-12-04T07:21:11;28.77;;;14.35;;
82505;SDS011;72144;51.444;10.560;2023-12-04T07:23:36;19.00;;;11.40;;
82505;SDS011;72144;51.444;10.560;2023-12-04T07:26:02;18.33;;;10.70;;
82505;SDS011;72144;51.444;10.560;2023-12-04T07:28:28;18.45;;;10.93;;
82505;SDS011;72144;51.444;10.560;2023-12-04T07:30:54;18.80;;;10.43;;
82505;SDS011;72144;51.444;10.560;2023-12-04T07:33:20;18.63;;;10.70;;
82505;SDS011;72144;51.444;10.560;2023-12-04T07:35:45;18.73;;;9.75;;
82505;SDS011;72144;51.444;10.560;2023-12-04T07:38:11;20.42;;;11.40;;
82505;SDS011;72144;51.444;10.560;2023-12-04T07:40:37;19.98;;;10.32;;
82505;SDS011;72144;51.444;10.560;2023-12-04T07:43:02;15.88;;;9.13;;
82505;SDS011;72144;51.444;10.560;2023-12-04T07:45:28;18.45;;;10.55;;
82505;SDS011;72144;51.444;10.560;2023-12-04T07:47:53;16.92;;;10.55;;
82505;SDS011;72144;51.444;10.560;2023-12-04T07:50:19;18.35;;;9.88;;
82505;SDS011;72144;51.444;10.560;2023-12-04T07:52:44;18.33;;;10.20;;
82505;SDS011;72144;51.444;10.560;2023-12-04T07:55:09;19.70;;;10.65;;
82505;SDS011;72144;51.444;10.560;2023-12-04T07:57:35;17.15;;;10.07;;
82505;SDS011;72144;51.444;10.560;2023-12-04T08:00:00;18.52;;;7.05;;
82505;SDS011;72144;51.444;10.560;2023-12-04T08:02:26;16.60;;;9.20;;
82505;SDS011;72144;51.444;10.560;2023-12-04T08:04:51;16.45;;;10.07;;
82505;SDS011;72144;51.444;10.560;2023-12-04T08:07:17;24.92;;;11.40;;
82505;SDS011;72144;51.444;10.560;2023-12-04T08:09:42;22.60;;;12.70;;
82505;SDS011;72144;51.444;10.560;2023-12-04T08:12:07;18.67;;;10.90;;
82505;SDS011;72144;51.444;10.560;2023-12-04T08:14:34;18.52;;;10.73;;
82505;SDS011;72144;51.444;10.560;2023-12-04T08:16:59;20.30;;;10.90;;
82505;SDS011;72144;51.444;10.560;2023-12-04T08:19:24;20.33;;;11.52;;
82505;SDS011;72144;51.444;10.560;2023-12-04T08:21:50;17.27;;;10.38;;
82505;SDS011;72144;51.444;10.560;2023-12-04T08:24:15;19.70;;;10.50;;
82505;SDS011;72144;51.444;10.560;2023-12-04T08:26:43;18.85;;;10.25;;
82505;SDS011;72144;51.444;10.560;2023-12-04T08:29:11;17.67;;;9.52;;
82505;SDS011;72144;51.444;10.560;2023-12-04T08:31:37;20.83;;;9.80;;
82505;SDS011;72144;51.444;10.560;2023-12-04T08:34:02;17.58;;;10.45;;
82505;SDS011;72144;51.444;10.560;2023-12-04T08:36:27;16.88;;;10.63;;
82505;SDS011;72144;51.444;10.560;2023-12-04T08:38:53;16.42;;;9.68;;
82505;SDS011;72144;51.444;10.560;2023-12-04T08:41:18;20.88;;;10.15;;
82505;SDS011;72144;51.444;10.560;2023-12-04T08:43:43;17.77;;;9.48;;
82505;SDS011;72144;51.444;10.560;2023-12-04T08:46:12;17.02;;;9.20;;
82505;SDS011;72144;51.444;10.560;2023-12-04T08:48:39;13.15;;;7.22;;
82505;SDS011;72144;51.444;10.560;2023-12-04T08:51:05;17.10;;;10.00;;
82505;SDS011;72144;51.444;10.560;2023-12-04T08:53:33;18.67;;;10.10;;
82505;SDS011;72144;51.444;10.560;2023-12-04T08:55:58;17.77;;;9.80;;
82505;SDS011;72144;51.444;10.560;2023-12-04T08:58:24;19.80;;;9.82;;
82505;SDS011;72144;51.444;10.560;2023-12-04T09:00:49;18.77;;;9.85;;
82505;SDS011;72144;51.444;10.560;2023-12-04T09:03:15;18.67;;;9.80;;
82505;SDS011;72144;51.444;10.560;2023-12-04T09:05:40;14.73;;;7.85;;
82505;SDS011;72144;51.444;10.560;2023-12-04T09:08:05;15.82;;;8.82;;
82505;SDS011;72144;51.444;10.560;2023-12-04T09:10:32;17.13;;;9.40;;
82505;SDS011;72144;51.444;10.560;2023-12-04T09:12:57;18.90;;;9.45;;
82505;SDS011;72144;51.444;10.560;2023-12-04T09:15:22;16.50;;;9.15;;
82505;SDS011;72144;51.444;10.560;2023-12-04T09:17:48;16.92;;;9.02;;
82505;SDS011;72144;51.444;10.560;2023-12-04T09:20:13;16.73;;;9.80;;
82505;SDS011;72144;51.444;10.560;2023-12-04T09:22:39;15.82;;;9.40;;
82505;SDS011;72144;51.444;10.560;2023-12-04T09:25:05;19.77;;;10.18;;
82505;SDS011;72144;51.444;10.560;2023-12-04T09:27:31;17.08;;;9.27;;
82505;SDS011;72144;51.444;10.560;2023-12-04T09:29:57;16.27;;;10.05;;
82505;SDS011;72144;51.444;10.560;2023-12-04T09:32:22;17.40;;;9.43;;
82505;SDS011;72144;51.444;10.560;2023-12-04T09:34:47;15.13;;;9.45;;
82505;SDS011;72144;51.444;10.560;2023-12-04T09:37:13;14.80;;;9.18;;
82505;SDS011;72144;51.444;10.560;2023-12-04T09:39:39;15.88;;;9.15;;
82505;SDS011;72144;51.444;10.560;2023-12-04T09:42:04;15.65;;;8.55;;
82505;SDS011;72144;51.444;10.560;2023-12-04T09:44:31;16.70;;;8.80;;
82505;SDS011;72144;51.444;10.560;2023-12-04T09:46:57;17.83;;;9.43;;
82505;SDS011;72144;51.444;10.560;2023-12-04T09:49:25;15.13;;;9.15;;
82505;SDS011;72144;51.444;10.560;2023-12-04T09:51:53;15.10;;;8.13;;
82505;SDS011;72144;51.444;10.560;2023-12-04T09:54:20;15.27;;;8.68;;
82505;SDS011;72144;51.444;10.560;2023-12-04T09:56:45;15.98;;;8.45;;
82505;SDS011;72144;51.444;10.560;2023-12-04T09:59:12;15.45;;;8.20;;
82505;SDS011;72144;51.444;10.560;2023-12-04T10:01:39;15.52;;;9.07;;
82505;SDS011;72144;51.444;10.560;2023-12-04T10:04:05;16.25;;;9.40;;
82505;SDS011;72144;51.444;10.560;2023-12-04T10:06:31;15.27;;;7.25;;
82505;SDS011;72144;51.444;10.560;2023-12-04T10:08:57;14.68;;;8.68;;
82505;SDS011;72144;51.444;10.560;2023-12-04T10:11:26;15.80;;;9.10;;
82505;SDS011;72144;51.444;10.560;2023-12-04T10:13:52;16.90;;;9.23;;
82505;SDS011;72144;51.444;10.560;2023-12-04T10:16:35;19.45;;;9.55;;
82505;SDS011;72144;51.444;10.560;2023-12-04T10:19:13;16.05;;;9.13;;
82505;SDS011;72144;51.444;10.560;2023-12-04T10:21:39;15.93;;;8.18;;
82505;SDS011;72144;51.444;10.560;2023-12-04T10:24:04;15.95;;;9.15;;
82505;SDS011;72144;51.444;10.560;2023-12-04T10:26:30;14.73;;;7.60;;
82505;SDS011;72144;51.444;10.560;2023-12-04T10:29:01;13.85;;;8.70;;
82505;SDS011;72144;51.444;10.560;2023-12-04T10:31:34;9.82;;;6.07;;
82505;SDS011;72144;51.444;10.560;2023-12-04T10:34:00;11.43;;;6.82;;
82505;SDS011;72144;51.444;10.560;2023-12-04T10:36:27;13.73;;;7.47;;
82505;SDS011;72144;51.444;10.560;2023-12-04T10:38:59;16.05;;;8.05;;
82505;SDS011;72144;51.444;10.560;2023-12-04T10:41:25;14.15;;;7.45;;
82505;SDS011;72144;51.444;10.560;2023-12-04T10:43:51;14.73;;;7.07;;
82505;SDS011;72144;51.444;10.560;2023-12-04T10:46:17;10.90;;;5.80;;
82505;SDS011;72144;51.444;10.560;2023-12-04T10:48:46;4.53;;;2.83;;
82505;SDS011;72144;51.444;10.560;2023-12-04T10:51:12;13.10;;;8.27;;
82505;SDS011;72144;51.444;10.560;2023-12-04T10:53:38;15.68;;;8.25;;
82505;SDS011;72144;51.444;10.560;2023-12-04T10:56:09;13.50;;;7.93;;
82505;SDS011;72144;51.444;10.560;2023-12-04T10:58:36;14.45;;;8.63;;
82505;SDS011;72144;51.444;10.560;2023-12-04T11:01:04;16.25;;;9.27;;
82505;SDS011;72144;51.444;10.560;2023-12-04T11:03:43;22.08;;;9.75;;
82505;SDS011;72144;51.444;10.560;2023-12-04T11:06:10;15.93;;;9.07;;
82505;SDS011;72144;51.444;10.560;2023-12-04T11:08:39;18.08;;;9.80;;
82505;SDS011;72144;51.444;10.560;2023-12-04T11:11:12;18.50;;;10.32;;
82505;SDS011;72144;51.444;10.560;2023-12-04T11:13:40;18.65;;;9.65;;
82505;SDS011;72144;51.444;10.560;2023-12-04T11:16:09;17.15;;;10.48;;
82505;SDS011;72144;51.444;10.560;2023-12-04T11:18:41;17.42;;;8.98;;
82505;SDS011;72144;51.444;10.560;2023-12-04T11:21:09;17.38;;;9.05;;
82505;SDS011;72144;51.444;10.560;2023-12-04T11:23:36;14.20;;;8.68;;
82505;SDS011;72144;51.444;10.560;2023-12-04T11:26:03;14.45;;;7.82;;
82505;SDS011;72144;51.444;10.560;2023-12-04T11:28:30;14.93;;;8.02;;
82505;SDS011;72144;51.444;10.560;2023-12-04T11:30:57;13.60;;;8.02;;
82505;SDS011;72144;51.444;10.560;2023-12-04T11:33:24;14.18;;;7.63;;
82505;SDS011;72144;51.444;10.560;2023-12-04T11:35:50;14.32;;;7.55;;
82505;SDS011;72144;51.444;10.560;2023-12-04T11:38:18;13.75;;;8.35;;
82505;SDS011;72144;51.444;10.560;2023-12-04T11:40:45;16.92;;;8.23;;
82505;SDS011;72144;51.444;10.560;2023-12-04T11:43:21;14.95;;;8.05;;
82505;SDS011;72144;51.444;10.560;2023-12-04T11:45:50;15.52;;;8.25;;
82505;SDS011;72144;51.444;10.560;2023-12-04T11:48:15;12.32;;;5.45;;
82505;SDS011;72144;51.444;10.560;2023-12-04T11:50:42;14.52;;;7.53;;
82505;SDS011;72144;51.444;10.560;2023-12-04T11:53:10;12.20;;;7.03;;
82505;SDS011;72144;51.444;10.560;2023-12-04T11:55:37;13.35;;;8.30;;
82505;SDS011;72144;51.444;10.560;2023-12-04T11:58:08;11.70;;;7.20;;
82505;SDS011;72144;51.444;10.560;2023-12-04T12:00:35;13.45;;;7.95;;
82505;SDS011;72144;51.444;10.560;2023-12-04T12:03:02;13.25;;;8.27;;
82505;SDS011;72144;51.444;10.560;2023-12-04T12:05:31;9.43;;;5.90;;
82505;SDS011;72144;51.444;10.560;2023-12-04T12:08:02;13.13;;;7.00;;
82505;SDS011;72144;51.444;10.560;2023-12-04T12:10:28;12.18;;;7.43;;
82505;SDS011;72144;51.444;10.560;2023-12-04T12:12:57;16.92;;;10.10;;
82505;SDS011;72144;51.444;10.560;2023-12-04T12:15:22;13.30;;;7.28;;
82505;SDS011;72144;51.444;10.560;2023-12-04T12:17:48;12.77;;;7.28;;
82505;SDS011;72144;51.444;10.560;2023-12-04T12:20:15;13.05;;;7.55;;
82505;SDS011;72144;51.444;10.560;2023-12-04T12:22:41;14.05;;;7.38;;
82505;SDS011;72144;51.444;10.560;2023-12-04T12:25:08;15.75;;;8.23;;
82505;SDS011;72144;51.444;10.560;2023-12-04T12:27:35;12.63;;;6.88;;
82505;SDS011;72144;51.444;10.560;2023-12-04T12:30:01;12.30;;;8.35;;
82505;SDS011;72144;51.444;10.560;2023-12-04T12:32:28;15.30;;;7.40;;
82505;SDS011;72144;51.444;10.560;2023-12-04T12:34:53;14.50;;;8.85;;
82505;SDS011;72144;51.444;10.560;2023-12-04T12:37:20;14.70;;;8.10;;
82505;SDS011;72144;51.444;10.560;2023-12-04T12:39:46;12.98;;;8.13;;
82505;SDS011;72144;51.444;10.560;2023-12-04T12:42:11;14.85;;;7.72;;
82505;SDS011;72144;51.444;10.560;2023-12-04T12:44:40;26.77;;;14.35;;
82505;SDS011;72144;51.444;10.560;2023-12-04T12:47:06;23.92;;;11.98;;
82505;SDS011;72144;51.444;10.560;2023-12-04T12:49:35;14.93;;;8.57;;
82505;SDS011;72144;51.444;10.560;2023-12-04T12:52:01;14.60;;;8.18;;
82505;SDS011;72144;51.444;10.560;2023-12-04T12:54:26;12.48;;;7.15;;
82505;SDS011;72144;51.444;10.560;2023-12-04T12:56:52;11.75;;;6.82;;
82505;SDS011;72144;51.444;10.560;2023-12-04T12:59:17;10.85;;;6.50;;
82505;SDS011;72144;51.444;10.560;2023-12-04T13:01:43;12.15;;;6.40;;
82505;SDS011;72144;51.444;10.560;2023-12-04T13:04:08;13.95;;;7.47;;
82505;SDS011;72144;51.444;10.560;2023-12-04T13:06:38;15.38;;;9.20;;
82505;SDS011;72144;51.444;10.560;2023-12-04T13:09:03;14.05;;;8.50;;
82505;SDS011;72144;51.444;10.560;2023-12-04T13:11:31;15.00;;;8.98;;
82505;SDS011;72144;51.444;10.560;2023-12-04T13:13:56;12.48;;;7.38;;
82505;SDS011;72144;51.444;10.560;2023-12-04T13:16:22;11.18;;;6.25;;
82505;SDS011;72144;51.444;10.560;2023-12-04T13:18:48;11.88;;;6.85;;
82505;SDS011;72144;51.444;10.560;2023-12-04T13:21:13;11.93;;;6.40;;
82505;SDS011;72144;51.444;10.560;2023-12-04T13:23:38;11.43;;;6.25;;
82505;SDS011;72144;51.444;10.560;2023-12-04T13:26:04;10.35;;;5.90;;
82505;SDS011;72144;51.444;10.560;2023-12-04T13:28:30;12.88;;;6.75;;
82505;SDS011;72144;51.444;10.560;2023-12-04T13:30:56;11.63;;;6.70;;
82505;SDS011;72144;51.444;10.560;2023-12-04T13:33:21;10.95;;;6.10;;
82505;SDS011;72144;51.444;10.560;2023-12-04T13:35:46;10.98;;;6.28;;
82505;SDS011;72144;51.444;10.560;2023-12-04T13:38:12;13.02;;;7.72;;
82505;SDS011;72144;51.444;10.560;2023-12-04T13:40:40;11.50;;;6.78;;
82505;SDS011;72144;51.444;10.560;2023-12-04T13:43:06;14.43;;;7.70;;
82505;SDS011;72144;51.444;10.560;2023-12-04T13:45:50;13.73;;;7.38;;
82505;SDS011;72144;51.444;10.560;2023-12-04T13:48:17;12.05;;;6.32;;
82505;SDS011;72144;51.444;10.560;2023-12-04T13:50:46;11.32;;;6.20;;
82505;SDS011;72144;51.444;10.560;2023-12-04T13:53:11;10.63;;;7.15;;
82505;SDS011;72144;51.444;10.560;2023-12-04T13:55:39;16.45;;;8.43;;
82505;SDS011;72144;51.444;10.560;2023-12-04T13:58:20;14.45;;;8.20;;
82505;SDS011;72144;51.444;10.560;2023-12-04T14:01:05;9.43;;;6.30;;
82505;SDS011;72144;51.444;10.560;2023-12-04T14:03:42;13.27;;;7.72;;
82505;SDS011;72144;51.444;10.560;2023-12-04T14:06:09;13.25;;;7.68;;
82505;SDS011;72144;51.444;10.560;2023-12-04T14:08:34;11.07;;;7.47;;
82505;SDS011;72144;51.444;10.560;2023-12-04T14:11:01;12.02;;;6.85;;